Maribel — LAGU6 — position and weather

sailwx.info

Track history (hours):
 
Tides and Currents Weather Stations Pressure Air Temp Water Temp Dewpoint Dewpoint Depression Visibility Wind Speed Wind Dir Waves Ship Positions

Maribel

Last reported at 2014-Aug-30 01:30 UTC. Time now 2014-Sep-03 00:00 UTC.
Position N 32°03' E 031°02'.

Length 227 m; draft 13.3 m.

Type: Tanker. MMSI: 257872000.

Date/timePositionNaut miles runAvg speedWind from/ knotsBaromVisibWave heightAir tempDewpointWater temp
2014-Aug-30 01:30N 32°03' E 031°02'1311.5
2014-Aug-30 00:24N 31°59' E 031°16'1011.4
2014-Aug-29 23:33N 31°56' E 031°27'3411.2
2014-Aug-29 20:30N 31°41' E 032°03'1211.8
2014-Aug-29 19:27N 31°32' E 032°13'1011.4
2014-Aug-29 18:33N 31°27' E 032°24'1211.3
2014-Aug-29 17:31N 31°16' E 032°21'8 8.3
2014-Aug-29 16:33N 31°08' E 032°19'9 9.3
2014-Aug-29 15:33N 30°59' E 032°19'  
Track history (hours):
 
Tides and Currents Weather Stations Pressure Air Temp Water Temp Dewpoint Dewpoint Depression Visibility Wind Speed Wind Dir Waves Ship Positions

Maribel

Last reported at 2014-Aug-30 01:30 UTC. Time now 2014-Sep-03 00:00 UTC.
Position N 32°03' E 031°02'.

Length 227 m; draft 13.3 m.

Type: Tanker. MMSI: 257872000.

Date/timePositionNaut miles runAvg speedWind from/ knotsBaromVisibWave heightAir tempDewpointWater temp
2014-Aug-30 01:30N 32°03' E 031°02'1311.5
2014-Aug-30 00:24N 31°59' E 031°16'1011.4
2014-Aug-29 23:33N 31°56' E 031°27'3411.2
2014-Aug-29 20:30N 31°41' E 032°03'1211.8
2014-Aug-29 19:27N 31°32' E 032°13'1011.4
2014-Aug-29 18:33N 31°27' E 032°24'1211.3
2014-Aug-29 17:31N 31°16' E 032°21'8 8.3
2014-Aug-29 16:33N 31°08' E 032°19'9 9.3
2014-Aug-29 15:33N 30°59' E 032°19'  

Dump ship's entire track history